Time;durP1;ratioP1;P1;durP2;ratioP2;P2;SDS_P1;SDS_P2;PMS_P1;PMS_P2;Temp;Humidity;BMP_temperature;BMP_pressure;BME280_temperature;BME280_humidity;BME280_pressure;Samples;Min_cycle;Max_cycle;Signal;HPM_P1;HPM_P2
2022/01/26 00:00:18;;;;;;;17.85;10.68;;;;;;;3.84;64.63;99041.81;9906934;29;20057;-78
2022/01/26 00:05:49;;;;;;;15.15;10.05;;;;;;;3.82;64.58;99033.28;9904588;29;20083;-78
2022/01/26 00:11:12;;;;;;;16.05;10.02;;;;;;;3.81;64.45;99040.09;9905184;29;20050;-77
2022/01/26 00:16:41;;;;;;;13.77;9.07;;;;;;;3.81;64.17;99029.78;9892113;29;20065;-78
2022/01/26 00:22:03;;;;;;;13.52;8.43;;;;;;;3.81;63.99;99035.31;9892229;29;20055;-78
2022/01/26 00:27:43;;;;;;;11.43;7.22;;;;;;;3.82;64.29;99028.53;9895635;29;20054;-78
2022/01/26 00:38:47;;;;;;;10.20;6.40;;;;;;;3.81;63.69;99037.31;9920939;29;20387;-78
2022/01/26 00:44:09;;;;;;;9.00;6.32;;;;;;;3.84;64.10;99036.28;9920533;29;20047;-78
2022/01/26 00:49:30;;;;;;;11.25;6.53;;;;;;;3.84;64.10;99030.75;9919104;29;20051;-79
2022/01/26 00:54:51;;;;;;;8.93;6.28;;;;;;;3.80;64.32;99027.56;9906404;29;20058;-78
2022/01/26 01:00:15;;;;;;;9.45;5.75;;;;;;;3.82;63.89;99041.59;9906337;29;20054;-78
2022/01/26 01:05:54;;;;;;;8.38;5.65;;;;;;;3.81;63.17;99040.09;9906529;29;20546;-78
2022/01/26 01:11:15;;;;;;;8.02;5.90;;;;;;;3.78;63.94;99038.38;9918204;29;20478;-78
2022/01/26 01:16:37;;;;;;;9.32;6.07;;;;;;;3.71;63.74;99034.16;9919075;29;20067;-78
2022/01/26 01:33:08;;;;;;;9.65;6.50;;;;;;;3.73;63.79;99026.84;9923677;29;20058;-78
2022/01/26 01:38:30;;;;;;;10.93;6.80;;;;;;;3.75;63.42;99018.03;9925794;29;20521;-78
2022/01/26 01:43:51;;;;;;;9.68;6.30;;;;;;;3.67;63.74;99023.41;9912601;29;20058;-78
2022/01/26 01:49:13;;;;;;;10.38;6.88;;;;;;;3.68;63.52;99024.16;9912465;29;20043;-78
2022/01/26 01:54:38;;;;;;;9.85;6.75;;;;;;;3.68;63.30;99024.91;9912211;29;20038;-78
2022/01/26 01:59:59;;;;;;;11.57;7.30;;;;;;;3.69;63.14;99020.88;9925400;29;20051;-78
2022/01/26 02:05:21;;;;;;;11.80;7.53;;;;;;;3.66;63.20;99010.84;9911778;29;20051;-78
2022/01/26 02:10:43;;;;;;;12.13;8.18;;;;;;;3.67;63.42;99020.66;9936377;29;20074;-78
2022/01/26 02:49:48;;;;;;;12.88;8.15;;;;;;;3.67;63.26;99015.13;9898684;29;20070;-78
2022/01/26 02:55:32;;;;;;;10.85;7.30;;;;;;;3.68;63.49;99008.34;9914994;29;20047;-78
2022/01/26 03:06:43;;;;;;;12.18;6.80;;;;;;;3.62;63.02;98993.06;9914678;29;20057;-78
2022/01/26 03:12:06;;;;;;;10.07;6.20;;;;;;;3.63;63.06;98991.81;9924131;29;20047;-79
2022/01/26 03:28:57;;;;;;;9.70;6.72;;;;;;;3.62;63.03;98999.34;9913206;29;20050;-78
2022/01/26 03:34:22;;;;;;;13.25;8.02;;;;;;;3.60;63.06;98996.38;9911966;29;20054;-78
2022/01/26 03:39:44;;;;;;;10.85;7.32;;;;;;;3.57;63.01;98997.41;9921519;29;20047;-78
2022/01/26 03:45:06;;;;;;;12.63;7.20;;;;;;;3.57;62.53;99004.91;9933680;29;20497;-78
2022/01/26 03:50:27;;;;;;;10.02;6.60;;;;;;;3.54;63.26;99001.19;9907654;29;20053;-78
2022/01/26 03:55:48;;;;;;;7.97;5.28;;;;;;;3.59;62.64;99005.91;9907884;29;20513;-78
2022/01/26 04:01:10;;;;;;;6.90;4.20;;;;;;;3.61;62.64;98995.09;9932665;29;20054;-78
2022/01/26 04:06:33;;;;;;;9.00;4.80;;;;;;;3.63;62.56;99000.84;9932669;29;20131;-78
2022/01/26 04:11:53;;;;;;;6.28;4.47;;;;;;;3.60;62.42;99001.88;9907676;29;20047;-78
2022/01/26 04:17:15;;;;;;;5.95;4.50;;;;;;;3.60;62.38;98995.63;9919858;29;20145;-78
2022/01/26 04:22:49;;;;;;;4.95;4.25;;;;;;;3.56;62.42;98990.38;9919446;29;20169;-78
2022/01/26 04:28:16;;;;;;;7.55;4.75;;;;;;;3.59;62.50;98992.09;9922818;29;20050;-78
2022/01/26 04:33:37;;;;;;;5.82;3.80;;;;;;;3.56;62.46;98984.84;9907632;29;20122;-78
2022/01/26 04:39:02;;;;;;;6.25;3.53;;;;;;;3.59;62.58;98994.88;9919255;29;20443;-78
2022/01/26 04:44:31;;;;;;;;;;;;;;;3.58;61.67;98976.81;9918984;29;20050;-78
2022/01/26 04:49:52;;;;;;;5.13;3.25;;;;;;;3.58;61.72;98968.53;9918391;29;19925;-78
2022/01/26 04:55:13;;;;;;;4.57;3.00;;;;;;;3.55;62.20;98966.78;9906427;29;20133;-78
2022/01/26 05:00:34;;;;;;;4.22;2.85;;;;;;;3.55;61.81;98960.50;9909008;29;20043;-78
2022/01/26 05:05:54;;;;;;;6.13;3.85;;;;;;;3.53;62.15;98963.78;9913147;29;20047;-78
2022/01/26 05:11:25;;;;;;;4.82;3.10;;;;;;;3.50;61.34;98962.06;9923494;29;20043;-78
2022/01/26 05:16:49;;;;;;;6.38;3.03;;;;;;;3.51;61.57;98965.59;9937781;29;20124;-78
2022/01/26 05:22:11;;;;;;;3.80;2.83;;;;;;;3.53;61.55;98955.50;9899668;29;20487;-78
2022/01/26 05:27:33;;;;;;;3.97;2.75;;;;;;;3.52;61.37;98956.03;9909930;29;20043;-78
2022/01/26 05:32:59;;;;;;;4.07;2.65;;;;;;;3.44;61.31;98951.09;9907065;29;20051;-78
2022/01/26 05:38:27;;;;;;;2.95;2.17;;;;;;;3.45;61.54;98957.34;9905872;29;20047;-78
2022/01/26 05:43:51;;;;;;;3.22;1.83;;;;;;;3.43;60.72;98951.59;9893835;29;20043;-77
2022/01/26 05:49:13;;;;;;;2.90;1.55;;;;;;;3.42;61.08;98950.84;9895653;29;20395;-78
2022/01/26 05:54:34;;;;;;;3.63;1.60;;;;;;;3.39;61.13;98948.41;9894354;29;20047;-78
2022/01/26 05:59:55;;;;;;;1.90;1.00;;;;;;;3.40;60.94;98956.16;9888685;29;20080;-78
2022/01/26 06:05:16;;;;;;;2.15;1.50;;;;;;;3.38;60.95;98950.41;9902369;29;20103;-78
2022/01/26 06:10:37;;;;;;;2.65;1.90;;;;;;;3.43;60.94;98954.38;9896767;29;20045;-78
2022/01/26 06:15:59;;;;;;;4.85;1.98;;;;;;;3.42;60.94;98942.56;9906926;29;20483;-78
2022/01/26 06:21:19;;;;;;;2.28;1.52;;;;;;;3.39;61.04;98942.88;9896863;29;20059;-79
2022/01/26 06:26:41;;;;;;;2.35;1.55;;;;;;;3.33;60.82;98940.16;9883372;29;20047;-78
2022/01/26 06:32:02;;;;;;;2.67;2.00;;;;;;;3.38;60.67;98944.13;9897586;29;20047;-78
2022/01/26 06:37:24;;;;;;;2.10;1.52;;;;;;;3.33;60.36;98942.91;9910889;29;20047;-78
2022/01/26 06:43:09;;;;;;;3.80;2.45;;;;;;;3.25;60.73;98938.47;9910900;29;20050;-78
2022/01/26 06:53:52;;;;;;;4.25;1.98;;;;;;;3.29;60.53;98941.72;9923306;29;20072;-78
2022/01/26 06:59:13;;;;;;;3.55;2.00;;;;;;;3.27;60.63;98935.94;9907436;29;20047;-78
2022/01/26 07:04:34;;;;;;;3.70;1.83;;;;;;;3.25;60.48;98944.00;9873074;30;20047;-78
2022/01/26 07:09:56;;;;;;;3.47;2.53;;;;;;;3.28;60.60;98946.50;9873539;30;20069;-79
2022/01/26 07:21:33;;;;;;;3.53;2.15;;;;;;;3.26;60.41;98946.25;9877534;30;20126;-78
2022/01/26 07:26:50;;;;;;;3.70;2.80;;;;;;;3.30;60.06;98938.44;9878188;30;20057;-79
2022/01/26 07:32:11;;;;;;;;;;;;;;;3.26;60.02;98937.97;9885775;30;20051;-78
2022/01/26 07:37:32;;;;;;;3.10;2.13;;;;;;;3.27;59.93;98952.50;9896457;30;19968;-78
2022/01/26 07:42:54;;;;;;;4.00;2.47;;;;;;;3.30;60.07;98957.00;9859640;30;20051;-78
2022/01/26 07:48:15;;;;;;;4.18;2.58;;;;;;;3.34;60.52;98962.97;9871763;30;20047;-78
2022/01/26 07:53:37;;;;;;;2.97;2.25;;;;;;;3.36;60.38;98952.16;9871359;30;20510;-78
2022/01/26 07:58:58;;;;;;;4.07;2.10;;;;;;;3.39;59.83;98942.88;9883354;30;20092;-78
2022/01/26 08:04:19;;;;;;;2.75;1.42;;;;;;;3.37;59.61;98948.13;9872346;29;20051;-78
2022/01/26 08:09:46;;;;;;;2.55;1.85;;;;;;;3.40;59.59;98958.16;9920466;29;20135;-78
2022/01/26 08:15:07;;;;;;;2.22;1.23;;;;;;;3.38;59.91;98957.94;9908554;29;20486;-78
2022/01/26 08:20:29;;;;;;;2.22;1.42;;;;;;;3.44;59.44;98961.38;9919896;29;20046;-78
2022/01/26 08:25:51;;;;;;;2.80;1.88;;;;;;;3.47;58.88;98951.31;9932001;29;20502;-78
2022/01/26 08:31:13;;;;;;;2.75;2.22;;;;;;;3.44;58.77;98964.88;9907402;29;20116;-78
2022/01/26 08:36:34;;;;;;;2.13;1.30;;;;;;;3.52;58.77;98967.81;9931679;29;20067;-79
2022/01/26 08:41:55;;;;;;;2.33;1.30;;;;;;;3.55;59.34;98955.75;9905630;29;20483;-78
2022/01/26 08:47:17;;;;;;;2.30;1.58;;;;;;;3.61;58.91;98956.44;9905626;29;20054;-78
2022/01/26 08:52:38;;;;;;;2.38;1.52;;;;;;;3.64;59.23;98957.41;9919349;29;20051;-78
2022/01/26 08:57:58;;;;;;;2.58;1.48;;;;;;;3.66;59.39;98969.41;9905918;29;20054;-78
2022/01/26 09:03:19;;;;;;;2.13;1.40;;;;;;;3.68;58.70;98972.44;9906526;29;20051;-78
2022/01/26 09:08:43;;;;;;;1.95;1.35;;;;;;;3.79;58.22;98970.81;9931253;29;20043;-78
2022/01/26 09:14:08;;;;;;;1.90;1.00;;;;;;;3.85;58.66;98965.97;9919353;29;20456;-78
2022/01/26 09:19:31;;;;;;;2.67;1.38;;;;;;;3.85;57.84;98960.44;9931475;29;20061;-78
2022/01/26 09:24:52;;;;;;;2.33;1.25;;;;;;;3.84;58.10;98947.91;9906599;29;20054;-78
2022/01/26 09:30:12;;;;;;;3.38;1.85;;;;;;;3.89;57.66;98938.81;9905829;29;20475;-78
2022/01/26 09:35:33;;;;;;;3.03;1.90;;;;;;;4.00;57.29;98950.47;9905847;29;20069;-78
2022/01/26 09:40:54;;;;;;;3.20;1.85;;;;;;;3.99;57.20;98951.72;9918088;29;20071;-78
2022/01/26 09:46:15;;;;;;;3.28;1.88;;;;;;;4.06;57.66;98946.91;9907492;29;20069;-78
2022/01/26 09:51:41;;;;;;;2.97;1.88;;;;;;;4.13;57.61;98940.75;9924975;29;20050;-78
2022/01/26 09:57:04;;;;;;;2.80;2.13;;;;;;;4.17;57.21;98947.50;9913419;29;20054;-78
2022/01/26 10:02:30;;;;;;;3.67;2.22;;;;;;;4.16;56.84;98946.00;9912796;29;20043;-78
2022/01/26 10:19:11;;;;;;;3.75;2.40;;;;;;;4.06;57.03;98942.13;9925879;29;20112;-78
2022/01/26 10:24:33;;;;;;;3.60;2.08;;;;;;;3.97;57.04;98945.25;9923681;29;20055;-78
2022/01/26 10:29:56;;;;;;;5.45;3.00;;;;;;;3.96;56.99;98949.28;9923772;29;20548;-78
2022/01/26 10:35:17;;;;;;;4.53;2.95;;;;;;;3.97;57.12;98936.97;9923378;29;20070;-76
2022/01/26 10:40:39;;;;;;;4.57;2.67;;;;;;;4.00;57.17;98939.41;9935611;29;20047;-77
2022/01/26 10:46:06;;;;;;;5.50;2.95;;;;;;;4.03;57.23;98921.03;9923760;29;20051;-78
2022/01/26 10:51:40;;;;;;;6.55;3.40;;;;;;;4.10;57.27;98917.69;9914769;29;20115;-80
2022/01/26 10:57:01;;;;;;;4.47;3.28;;;;;;;4.02;57.07;98911.25;9913966;29;20103;-77
2022/01/26 11:02:28;;;;;;;6.75;3.60;;;;;;;3.98;57.07;98905.28;9934850;29;20070;-77
2022/01/26 11:07:49;;;;;;;5.13;4.20;;;;;;;4.03;57.29;98905.19;9924188;29;20039;-79
2022/01/26 11:13:10;;;;;;;5.53;3.75;;;;;;;3.78;56.75;98912.06;9955394;29;20407;-81
2022/01/26 11:18:33;;;;;;;6.30;4.75;;;;;;;3.71;56.93;98907.13;9957437;29;20062;-82
2022/01/26 12:39:09;;;;;;;9.13;6.25;;;;;;;3.83;57.95;98869.81;10358475;24;20050;-78
2022/01/26 12:44:32;;;;;;;9.95;7.00;;;;;;;3.80;58.05;98886.69;9994346;29;20042;-77
2022/01/26 12:49:53;;;;;;;11.15;7.43;;;;;;;3.76;58.21;98875.16;9993615;29;20069;-77
2022/01/26 12:55:20;;;;;;;12.35;7.65;;;;;;;3.74;57.82;98870.91;9971463;29;20046;-80
2022/01/26 13:00:43;;;;;;;11.02;6.78;;;;;;;3.80;57.77;98864.59;10012314;29;20071;-80
2022/01/26 13:06:07;;;;;;;9.45;6.55;;;;;;;3.82;57.99;98848.97;9984066;29;20485;-80
2022/01/26 13:11:33;;;;;;;13.95;7.80;;;;;;;3.83;57.60;98852.50;9997140;29;20481;-80
2022/01/26 13:23:34;;;;;;;11.90;7.93;;;;;;;3.91;57.67;98864.44;11993236;24;20129;31
2022/01/26 13:29:22;;;;;;;12.23;8.10;;;;;;;3.90;57.91;98860.19;10017461;29;20266;-80
2022/01/26 13:41:34;;;;;;;10.43;7.38;;;;;;;3.88;57.40;98859.97;12086151;24;20040;-79
2022/01/26 14:03:18;;;;;;;11.20;7.53;;;;;;;3.80;58.11;98842.50;9929550;29;20422;-78
2022/01/26 14:08:40;;;;;;;12.65;7.95;;;;;;;3.76;57.87;98847.56;9949643;29;20382;-79
2022/01/26 14:14:02;;;;;;;10.98;8.00;;;;;;;3.70;58.36;98842.88;9949899;29;20061;-79
2022/01/26 14:19:40;;;;;;;15.02;8.55;;;;;;;3.69;58.38;98835.84;9949147;29;20054;-79
2022/01/26 14:25:25;;;;;;;12.27;8.30;;;;;;;3.71;58.26;98843.63;9963475;29;20456;-79
2022/01/26 14:31:26;;;;;;;11.60;7.07;;;;;;;3.70;58.59;98851.16;9963605;29;20046;-79
2022/01/26 17:11:12;;;;;;;16.08;9.65;;;;;;;3.25;59.23;98795.00;9946320;29;20188;-80
2022/01/26 18:16:47;;;;;;;16.92;9.93;;;;;;;3.09;60.34;98793.94;10039182;29;20093;-82
2022/01/26 18:40:18;;;;;;;20.23;12.25;;;;;;;3.04;60.67;98787.19;10125720;24;20069;-82
2022/01/26 18:51:07;;;;;;;19.23;11.13;;;;;;;2.97;60.53;98759.44;9989658;29;20379;-80
2022/01/26 18:56:29;;;;;;;16.10;10.60;;;;;;;2.97;60.64;98767.72;9957551;29;20122;-81
2022/01/26 19:01:54;;;;;;;16.58;10.93;;;;;;;2.96;60.91;98763.47;9985913;29;20079;-80
2022/01/26 19:07:20;;;;;;;19.02;12.13;;;;;;;2.97;61.45;98765.69;9966323;29;20079;-81
2022/01/26 19:12:43;;;;;;;19.70;11.88;;;;;;;2.98;61.08;98788.50;9967483;29;20137;-80
2022/01/26 19:18:16;;;;;;;19.40;11.68;;;;;;;2.94;61.01;98775.03;9964147;29;20383;-77
2022/01/26 19:29:13;;;;;;;19.08;12.48;;;;;;;2.89;61.61;98775.81;9959715;29;20046;-77
2022/01/26 19:46:12;;;;;;;18.63;11.45;;;;;;;2.88;61.15;98799.16;9963403;29;20121;-77
2022/01/26 19:51:35;;;;;;;16.63;10.68;;;;;;;2.78;61.22;98773.91;9937897;29;20046;-77
2022/01/26 19:56:56;;;;;;;15.68;10.52;;;;;;;2.80;61.54;98773.44;9946317;29;20054;-78
2022/01/26 20:02:16;;;;;;;18.95;12.15;;;;;;;2.81;61.32;98752.84;9945420;29;20046;-78
2022/01/26 20:07:38;;;;;;;16.58;11.77;;;;;;;2.76;61.34;98754.41;9933031;29;20478;-77
2022/01/26 20:13:03;;;;;;;18.70;11.75;;;;;;;2.77;61.25;98783.47;9944806;29;20422;-77
2022/01/26 20:18:25;;;;;;;16.80;11.25;;;;;;;2.74;61.06;98781.75;9943209;29;20107;-77
2022/01/26 20:23:45;;;;;;;17.92;11.73;;;;;;;2.73;61.29;98777.50;9932517;29;20046;-77
2022/01/26 20:29:07;;;;;;;20.05;12.40;;;;;;;2.75;61.03;98793.53;9944728;29;20051;-78
2022/01/26 20:34:28;;;;;;;20.73;12.48;;;;;;;2.71;61.32;98787.56;9957014;29;20125;-78
2022/01/26 20:39:52;;;;;;;21.50;13.48;;;;;;;2.66;61.21;98780.06;9919452;29;20065;-77
2022/01/26 20:45:20;;;;;;;19.35;13.35;;;;;;;2.68;61.77;98766.50;9919377;29;20059;-77
2022/01/26 20:50:41;;;;;;;22.95;13.77;;;;;;;2.65;61.41;98767.56;9919698;29;20113;-77
2022/01/26 20:56:02;;;;;;;24.05;13.73;;;;;;;2.61;61.15;98750.56;9920974;29;20046;-79
2022/01/26 21:01:24;;;;;;;23.40;14.35;;;;;;;2.67;61.36;98751.25;9928700;29;20148;-81
2022/01/26 21:06:45;;;;;;;23.92;15.02;;;;;;;2.68;61.43;98772.03;9930221;29;20126;-81
2022/01/26 21:12:07;;;;;;;22.40;15.23;;;;;;;2.65;62.00;98753.78;9940971;29;20058;-80
2022/01/26 21:17:27;;;;;;;25.02;14.95;;;;;;;2.63;61.64;98770.84;9931203;29;20047;-81
2022/01/26 21:22:48;;;;;;;26.35;15.27;;;;;;;2.67;61.83;98768.53;9909989;29;20062;-81
2022/01/26 21:28:10;;;;;;;26.50;16.10;;;;;;;2.64;62.08;98763.31;9914984;29;20554;-81
2022/01/26 21:33:34;;;;;;;25.92;15.82;;;;;;;2.63;62.06;98764.56;9940040;29;20410;-80
2022/01/26 21:38:55;;;;;;;27.05;15.77;;;;;;;2.63;61.97;98764.56;9948298;29;20065;-80
2022/01/26 21:44:16;;;;;;;24.80;15.27;;;;;;;2.63;61.91;98759.06;9951746;29;20133;-80
2022/01/26 21:49:37;;;;;;;26.58;15.55;;;;;;;2.68;62.10;98777.53;9955513;29;20047;-80
2022/01/26 21:54:58;;;;;;;27.13;15.80;;;;;;;2.66;61.80;98778.06;9946454;29;20061;-80
2022/01/26 22:00:20;;;;;;;25.08;15.50;;;;;;;2.69;61.75;98759.72;9957648;29;20083;-80
2022/01/26 22:05:41;;;;;;;23.17;13.48;;;;;;;2.71;61.52;98749.69;9957905;29;20050;-80
2022/01/26 22:11:01;;;;;;;26.60;15.07;;;;;;;2.70;61.73;98747.44;9957542;29;20482;-81
2022/01/26 22:16:22;;;;;;;26.42;14.75;;;;;;;2.64;61.90;98755.03;9970451;29;20050;-80
2022/01/26 22:21:43;;;;;;;22.35;14.13;;;;;;;2.60;61.54;98749.78;9957850;29;20051;-80
2022/01/26 22:27:05;;;;;;;24.23;14.85;;;;;;;2.65;62.09;98753.78;9956802;29;20206;-80
2022/01/26 22:32:26;;;;;;;27.80;15.30;;;;;;;2.61;61.79;98759.59;9969264;29;20046;-80
2022/01/26 22:37:49;;;;;;;24.75;14.75;;;;;;;2.56;61.84;98747.34;9956657;29;20545;-80
2022/01/26 22:43:11;;;;;;;26.83;14.82;;;;;;;2.62;62.09;98750.03;9956746;29;20050;-80
2022/01/26 22:48:33;;;;;;;23.58;14.98;;;;;;;2.65;61.80;98751.00;9968759;29;20111;-80
2022/01/26 22:53:56;;;;;;;28.88;15.00;;;;;;;2.62;61.93;98741.03;9945224;29;20054;-80
2022/01/26 22:59:17;;;;;;;27.30;15.35;;;;;;;2.61;61.73;98739.53;9942701;29;20127;-80
2022/01/26 23:04:43;;;;;;;25.23;15.55;;;;;;;2.61;61.57;98751.31;9955526;29;20513;-80
2022/01/26 23:10:08;;;;;;;27.10;15.35;;;;;;;2.54;62.19;98755.38;9958871;29;20409;-80
2022/01/26 23:15:29;;;;;;;25.58;15.90;;;;;;;2.55;61.75;98731.31;9955291;29;20050;-80
2022/01/26 23:20:50;;;;;;;27.05;16.42;;;;;;;2.55;61.94;98725.81;9956485;29;20050;-81
2022/01/26 23:43:43;;;;;;;23.23;13.63;;;;;;;2.53;62.16;98714.56;9960829;29;20077;-80
